createdAt,value
2023-04-19T00:00:03.404Z,0
2023-04-19T00:05:05.312Z,0
2023-04-19T00:10:06.743Z,0.88715
2023-04-19T00:15:08.277Z,0
2023-04-19T00:20:09.773Z,0.88715
2023-04-19T00:25:11.334Z,0
2023-04-19T00:30:12.741Z,0
2023-04-19T00:35:14.093Z,0
2023-04-19T00:40:15.509Z,0
2023-04-19T00:45:16.783Z,0
2023-04-19T00:50:18.284Z,0
2023-04-19T00:55:19.557Z,0
2023-04-19T01:00:21.111Z,0
2023-04-19T01:05:22.580Z,0
2023-04-19T01:10:24.063Z,0
2023-04-19T01:15:25.374Z,0
2023-04-19T01:20:26.838Z,0
2023-04-19T01:25:28.110Z,0
2023-04-19T01:30:29.706Z,0.88715
2023-04-19T01:35:31.570Z,0
2023-04-19T01:40:33.213Z,0
2023-04-19T01:45:34.543Z,0
2023-04-19T01:50:35.843Z,0
2023-04-19T01:55:37.263Z,0
2023-04-19T02:00:38.730Z,0
2023-04-19T02:05:40.145Z,0
2023-04-19T02:10:41.475Z,0
2023-04-19T02:15:42.744Z,0
2023-04-19T02:20:44.042Z,0.88715
2023-04-19T02:25:45.595Z,0
2023-04-19T02:30:46.933Z,0
2023-04-19T02:35:48.876Z,0
2023-04-19T02:40:50.124Z,0
2023-04-19T02:45:51.603Z,0
2023-04-19T02:50:53.163Z,0
2023-04-19T02:55:54.462Z,0
2023-04-19T03:00:55.716Z,0
2023-04-19T03:05:57.597Z,0
2023-04-19T03:10:59.112Z,0
2023-04-19T03:16:00.421Z,0
2023-04-19T03:21:01.896Z,0
2023-04-19T03:26:03.349Z,0.88715
2023-04-19T03:31:04.741Z,0
2023-04-19T03:36:06.085Z,0
2023-04-19T03:41:07.634Z,0
2023-04-19T03:46:09.129Z,0
2023-04-19T03:51:10.527Z,0.88715
2023-04-19T03:56:11.791Z,0.88715
2023-04-19T04:01:13.166Z,0.88715
2023-04-19T04:06:14.468Z,0.4148
2023-04-19T04:11:15.861Z,0.88885
2023-04-19T04:16:17.163Z,2.13325
2023-04-19T04:21:18.764Z,5.93855
2023-04-19T04:26:20.305Z,12.30115
2023-04-19T04:31:21.926Z,24.473
2023-04-19T04:36:23.718Z,39.153
2023-04-19T04:41:25.089Z,49.9234
2023-04-19T04:46:26.418Z,71.2056
2023-04-19T04:51:27.845Z,93.28075
2023-04-19T04:56:29.211Z,112.0548
2023-04-19T05:01:30.640Z,130.82885
2023-04-19T05:06:31.990Z,148.44105
2023-04-19T05:11:33.284Z,163.72955
2023-04-19T05:16:34.616Z,176.08585
2023-04-19T05:21:36.172Z,199.32285
2023-04-19T05:26:37.774Z,214.24245
2023-04-19T05:31:39.320Z,227.0228
2023-04-19T05:36:40.945Z,244.3954
2023-04-19T05:41:42.261Z,259.99765
2023-04-19T05:46:43.665Z,290.7781
2023-04-19T05:51:45.032Z,316.6164
2023-04-19T05:56:46.306Z,321.11735
2023-04-19T06:01:47.673Z,330.376
2023-04-19T06:06:49.235Z,353.70615
2023-04-19T06:11:51.784Z,406.71005
2023-04-19T06:16:53.501Z,446.3061
2023-04-19T06:21:55.073Z,476.84695
2023-04-19T06:26:56.645Z,508.18075
2023-04-19T06:31:58.072Z,528.9286
2023-04-19T06:36:59.715Z,542.2813
2023-04-19T06:42:01.316Z,569.76065
2023-04-19T06:47:03.064Z,586.23
2023-04-19T06:52:04.161Z,597.259
2023-04-19T06:57:05.554Z,608.23285
2023-04-19T07:02:06.871Z,618.8378
2023-04-19T07:07:08.424Z,630.42015
2023-04-19T07:12:09.851Z,648.54955
2023-04-19T07:17:11.324Z,650.8371
2023-04-19T07:22:14.659Z,680.4557
2023-04-19T07:27:16.387Z,684.4033
2023-04-19T07:32:17.745Z,699.28675
2023-04-19T07:37:19.479Z,706.5906
2023-04-19T07:42:21.043Z,715.0563
2023-04-19T07:47:22.610Z,720.40535
2023-04-19T07:52:23.950Z,746.6677
2023-04-19T07:57:25.532Z,746.52125
2023-04-19T08:02:27.205Z,769.42735
2023-04-19T08:07:28.579Z,781.34245
2023-04-19T08:12:37.256Z,779.8497
2023-04-19T08:17:42.050Z,819.46475
2023-04-19T08:22:44.196Z,824.27945
2023-04-19T08:27:45.840Z,828.85455
2023-04-19T08:32:47.417Z,834.75695
2023-04-19T08:37:49.403Z,837.85645
2023-04-19T08:42:50.818Z,858.8819
2023-04-19T08:48:00.526Z,886.63885
2023-04-19T08:53:12.032Z,885.69945
2023-04-19T08:58:30.684Z,882.56565
2023-04-19T09:03:44.306Z,908.9763
2023-04-19T09:08:52.707Z,926.018
2023-04-19T09:13:54.130Z,927.82635
2023-04-19T09:19:02.448Z,942.8581
2023-04-19T09:24:04.617Z,951.9513
2023-04-19T09:29:06.198Z,972.84745
2023-04-19T09:34:07.727Z,1005.3621
2023-04-19T09:39:09.661Z,994.44525
2023-04-19T09:44:44.598Z,1002.4869
2023-04-19T09:50:08.900Z,990.59265
2023-04-19T09:55:26.728Z,1014.12625
2023-04-19T10:00:36.149Z,1094.3509
2023-04-19T10:05:43.685Z,1119.8203
2023-04-19T10:10:45.637Z,1062.3173
2023-04-19T10:15:52.490Z,1061.4882
2023-04-19T10:20:56.852Z,1078.58505
2023-04-19T10:25:58.455Z,1150.363
2023-04-19T10:30:59.858Z,1171.59005
2023-04-19T10:36:01.216Z,1218.71055
2023-04-19T10:41:02.768Z,1291.5762
2023-04-19T10:46:04.040Z,1285.7118
2023-04-19T10:51:05.410Z,1292.27785
2023-04-19T10:56:06.750Z,1346.35045
2023-04-19T11:01:08.358Z,1385.4293
2023-04-19T11:06:09.930Z,1426.22335
2023-04-19T11:11:11.867Z,1445.3663
2023-04-19T11:16:13.479Z,1479.6133
2023-04-19T11:21:15.092Z,1533.5566
2023-04-19T11:26:16.729Z,1543.9391
2023-04-19T11:31:18.335Z,1542.9617
2023-04-19T11:36:19.885Z,1542.40835
2023-04-19T11:41:21.465Z,1590.5424
2023-04-19T11:46:23.039Z,1598.89595
2023-04-19T11:51:24.511Z,1635.3925
2023-04-19T11:56:25.896Z,1614.62565
2023-04-19T12:01:27.165Z,1634.8563
2023-04-19T12:06:28.547Z,1667.3691
2023-04-19T12:11:30.074Z,1655.1041
2023-04-19T12:16:31.492Z,1642.7288
2023-04-19T12:21:32.937Z,1667.1638
2023-04-19T12:26:34.756Z,1636.0696
2023-04-19T12:31:36.115Z,1641.7857
2023-04-19T12:36:37.528Z,1671.8455
2023-04-19T12:41:39.516Z,1658.54795
2023-04-19T12:46:41.185Z,1660.59405
2023-04-19T12:51:43.157Z,1632.9854
2023-04-19T12:56:44.843Z,1615.15075
2023-04-19T13:01:46.496Z,1580.99505
2023-04-19T13:06:48.118Z,1566.88555
2023-04-19T13:11:49.919Z,1540.06985
2023-04-19T13:16:51.394Z,1526.95675
2023-04-19T13:21:52.712Z,1498.1121
2023-04-19T13:26:54.130Z,1460.83975
2023-04-19T13:31:55.510Z,1416.28255
2023-04-19T13:36:57.198Z,1387.4379
2023-04-19T13:41:59.162Z,1361.15655
2023-04-19T13:47:00.672Z,1300.57305
2023-04-19T13:52:02.232Z,1267.63435
2023-04-19T13:57:03.533Z,1207.65935
2023-04-19T14:02:04.977Z,1166.40325
2023-04-19T14:07:06.595Z,1106.18865
2023-04-19T14:12:08.190Z,1060.15585
2023-04-19T14:17:09.622Z,1005.93495
2023-04-19T14:22:11.050Z,933.23475
2023-04-19T14:27:12.513Z,854.67015
2023-04-19T14:32:25.316Z,762.2185
2023-04-19T14:37:28.077Z,641.86345
2023-04-19T14:42:29.710Z,535.15585
2023-04-19T14:47:31.284Z,435.05045
2023-04-19T14:52:32.870Z,358.6061
2023-04-19T14:57:34.530Z,285.38345
2023-04-19T15:02:36.310Z,237.8589
2023-04-19T15:07:37.957Z,195.25275
2023-04-19T15:12:39.861Z,154.0689
2023-04-19T15:17:41.498Z,119.87745
2023-04-19T15:22:43.127Z,89.2415
2023-04-19T15:27:44.828Z,64.5905
2023-04-19T15:32:46.390Z,50.3493
2023-04-19T15:37:47.945Z,34.11955
2023-04-19T15:42:49.528Z,21.13575
2023-04-19T15:47:51.134Z,15.12305
2023-04-19T15:52:52.481Z,9.1845
2023-04-19T15:57:53.767Z,3.79245
2023-04-19T16:02:55.141Z,1.83695
2023-04-19T16:07:56.614Z,0.8296
2023-04-19T16:12:57.901Z,0
2023-04-19T16:17:59.406Z,0.88715
2023-04-19T16:23:00.750Z,0.88715
2023-04-19T16:28:02.053Z,0.88715
2023-04-19T16:33:03.537Z,0.88715
2023-04-19T16:38:05.032Z,0.88715
2023-04-19T16:43:06.765Z,0.88715
2023-04-19T16:48:08.459Z,0
2023-04-19T16:53:10.218Z,0
2023-04-19T16:58:11.774Z,0
2023-04-19T17:03:13.449Z,0
2023-04-19T17:08:15.106Z,0
2023-04-19T17:13:16.664Z,0
2023-04-19T17:18:18.239Z,0
2023-04-19T17:23:19.904Z,0
2023-04-19T17:28:21.618Z,0
2023-04-19T17:33:23.165Z,0
2023-04-19T17:38:24.718Z,0.88715
2023-04-19T17:43:26.029Z,0
2023-04-19T17:48:27.473Z,0
2023-04-19T17:53:29.025Z,0
2023-04-19T17:58:30.744Z,0
2023-04-19T18:03:32.264Z,0
2023-04-19T18:08:33.942Z,0
2023-04-19T18:13:35.549Z,0
2023-04-19T18:18:37.124Z,0
2023-04-19T18:23:38.730Z,0
2023-04-19T18:28:40.346Z,0.88715
2023-04-19T18:33:41.950Z,0
2023-04-19T18:38:43.492Z,0
2023-04-19T18:44:06.626Z,0
2023-04-19T18:49:15.989Z,0
2023-04-19T18:54:18.084Z,0
2023-04-19T18:59:19.803Z,0
2023-04-19T19:04:43.020Z,0.88715
2023-04-19T19:09:56.290Z,0
2023-04-19T19:14:58.312Z,0.88715
2023-04-19T19:19:59.678Z,0
2023-04-19T19:25:01.167Z,0
2023-04-19T19:30:02.530Z,0.88715
2023-04-19T19:35:07.334Z,0
2023-04-19T19:40:10.941Z,0
2023-04-19T19:45:12.583Z,0
2023-04-19T19:51:00.875Z,0
2023-04-19T19:56:21.443Z,0
2023-04-19T20:01:23.578Z,0
2023-04-19T20:07:21.431Z,0
2023-04-19T20:12:30.733Z,0
2023-04-19T20:17:32.194Z,0
2023-04-19T20:22:33.531Z,0
2023-04-19T20:27:34.885Z,0
2023-04-19T20:32:36.195Z,0
2023-04-19T20:37:37.593Z,0
2023-04-19T20:42:39.045Z,0
2023-04-19T20:47:40.410Z,0
2023-04-19T20:52:41.817Z,0
2023-04-19T20:57:43.531Z,0
2023-04-19T21:02:45.049Z,0
2023-04-19T21:07:46.808Z,0
2023-04-19T21:12:48.378Z,0
2023-04-19T21:17:49.869Z,0
2023-04-19T21:22:51.286Z,0.88715
2023-04-19T21:27:52.624Z,0
2023-04-19T21:32:53.956Z,0
2023-04-19T21:37:55.255Z,0
2023-04-19T21:42:57.137Z,0.88715
2023-04-19T21:47:58.731Z,0
2023-04-19T21:53:00.114Z,0
2023-04-19T21:58:01.572Z,0
2023-04-19T22:03:03.265Z,0
2023-04-19T22:08:04.695Z,0
2023-04-19T22:13:06.355Z,0
2023-04-19T22:18:07.666Z,0
2023-04-19T22:23:09.922Z,0
2023-04-19T22:28:11.855Z,0
2023-04-19T22:33:13.336Z,0.88715
2023-04-19T22:38:14.915Z,0
2023-04-19T22:43:16.495Z,0.88715
2023-04-19T22:48:18.211Z,0
2023-04-19T22:53:19.756Z,0
2023-04-19T22:58:21.196Z,0
2023-04-19T23:03:23.109Z,0
2023-04-19T23:08:24.696Z,0
2023-04-19T23:13:26.251Z,0
2023-04-19T23:18:27.956Z,0
2023-04-19T23:23:29.540Z,0
2023-04-19T23:28:30.829Z,0
2023-04-19T23:33:32.730Z,0
2023-04-19T23:38:34.396Z,0
2023-04-19T23:43:36.054Z,0
2023-04-19T23:48:37.626Z,0
2023-04-19T23:53:39.190Z,0.88715
2023-04-19T23:58:40.606Z,0
